createdAt,value
2018-01-21T00:01:52.165Z,28.20
2018-01-21T00:04:20.032Z,27.73
2018-01-21T00:06:47.900Z,28.10
2018-01-21T00:09:15.771Z,29.70
2018-01-21T00:11:43.727Z,29.17
2018-01-21T00:14:11.603Z,31.10
2018-01-21T00:16:39.474Z,30.23
2018-01-21T00:19:07.337Z,30.50
2018-01-21T00:21:35.242Z,32.00
2018-01-21T00:24:03.140Z,29.37
2018-01-21T00:26:31.040Z,29.70
2018-01-21T00:28:58.904Z,27.50
2018-01-21T00:31:26.779Z,29.70
2018-01-21T00:33:54.641Z,30.10
2018-01-21T00:36:22.516Z,30.83
2018-01-21T00:38:50.420Z,30.43
2018-01-21T00:41:18.297Z,30.40
2018-01-21T00:43:46.172Z,27.97
2018-01-21T00:46:14.016Z,29.77
2018-01-21T00:48:41.880Z,31.00
2018-01-21T00:51:09.755Z,33.30
2018-01-21T00:53:37.727Z,31.20
2018-01-21T00:56:05.594Z,31.27
2018-01-21T00:58:33.515Z,29.47
2018-01-21T01:01:01.405Z,27.53
2018-01-21T01:03:29.320Z,27.30
2018-01-21T01:05:57.272Z,28.23
2018-01-21T01:08:25.132Z,33.90
2018-01-21T01:10:52.995Z,26.10
2018-01-21T01:13:20.918Z,25.23
2018-01-21T01:15:48.829Z,27.60
2018-01-21T01:18:16.718Z,25.07
2018-01-21T01:20:44.610Z,27.47
2018-01-21T01:23:12.489Z,27.23
2018-01-21T01:25:40.477Z,26.60
2018-01-21T01:28:08.364Z,29.40
2018-01-21T01:30:36.249Z,26.83
2018-01-21T01:33:04.175Z,23.87
2018-01-21T01:35:32.053Z,25.17
2018-01-21T01:37:59.892Z,21.47
2018-01-21T01:40:27.727Z,25.70
2018-01-21T01:42:55.615Z,25.70
2018-01-21T01:45:23.483Z,21.20
2018-01-21T01:47:51.348Z,23.30
2018-01-21T01:50:19.285Z,22.00
2018-01-21T01:52:47.128Z,21.67
2018-01-21T01:55:14.963Z,22.00
2018-01-21T01:57:42.878Z,21.77
2018-01-21T02:00:10.744Z,21.80
2018-01-21T02:02:38.609Z,22.73
2018-01-21T02:05:06.562Z,23.73
2018-01-21T02:07:34.404Z,23.23
2018-01-21T02:10:02.255Z,23.23
2018-01-21T02:12:30.127Z,24.70
2018-01-21T02:14:57.991Z,22.50
2018-01-21T02:17:25.836Z,22.90
2018-01-21T02:19:53.707Z,21.80
2018-01-21T02:22:21.563Z,21.57
2018-01-21T02:24:49.402Z,21.07
2018-01-21T02:27:17.267Z,21.00
2018-01-21T02:29:45.112Z,21.60
2018-01-21T02:32:12.939Z,22.13
2018-01-21T02:34:40.815Z,21.57
2018-01-21T02:37:08.738Z,21.53
2018-01-21T02:39:36.638Z,23.10
2018-01-21T02:42:04.607Z,21.60
2018-01-21T02:44:32.492Z,20.60
2018-01-21T02:47:00.311Z,21.20
2018-01-21T02:49:28.172Z,22.57
2018-01-21T02:51:56.028Z,19.47
2018-01-21T02:54:23.884Z,20.80
2018-01-21T02:56:51.767Z,21.00
2018-01-21T02:59:19.629Z,21.23
2018-01-21T03:01:47.556Z,18.70
2018-01-21T03:04:15.491Z,19.30
2018-01-21T03:06:43.364Z,19.83
2018-01-21T03:09:11.279Z,20.70
2018-01-21T03:11:39.642Z,20.77
2018-01-21T03:14:07.512Z,21.73
2018-01-21T03:16:35.449Z,19.97
2018-01-21T03:19:03.411Z,20.20
2018-01-21T03:21:31.257Z,21.03
2018-01-21T03:23:59.110Z,21.33
2018-01-21T03:26:26.988Z,18.73
2018-01-21T03:28:54.847Z,20.93
2018-01-21T03:31:22.732Z,20.00
2018-01-21T03:33:50.622Z,18.67
2018-01-21T03:36:18.545Z,19.97
2018-01-21T03:38:46.448Z,19.20
2018-01-21T03:41:14.338Z,18.33
2018-01-21T03:43:42.193Z,20.37
2018-01-21T03:46:10.046Z,23.77
2018-01-21T03:48:37.949Z,22.83
2018-01-21T03:51:05.825Z,20.20
2018-01-21T03:53:33.704Z,20.03
2018-01-21T03:56:01.579Z,23.37
2018-01-21T03:58:29.424Z,21.60
2018-01-21T04:00:57.290Z,22.00
2018-01-21T04:03:25.189Z,21.30
2018-01-21T04:05:53.147Z,21.47
2018-01-21T04:08:21.006Z,21.40
2018-01-21T04:10:48.915Z,21.40
2018-01-21T04:13:16.787Z,21.20
2018-01-21T04:15:44.648Z,20.70
2018-01-21T04:18:12.560Z,22.47
2018-01-21T04:20:40.416Z,22.77
2018-01-21T04:23:08.297Z,21.70
2018-01-21T04:25:36.192Z,21.97
2018-01-21T04:28:04.064Z,23.47
2018-01-21T04:30:31.905Z,20.87
2018-01-21T04:32:59.984Z,22.10
2018-01-21T04:35:27.896Z,22.13
2018-01-21T04:37:55.762Z,21.97
2018-01-21T04:40:23.653Z,22.30
2018-01-21T04:42:51.505Z,22.13
2018-01-21T04:45:19.376Z,23.10
2018-01-21T04:47:47.235Z,22.83
2018-01-21T04:50:15.117Z,21.83
2018-01-21T04:52:42.971Z,22.67
2018-01-21T04:55:10.861Z,23.00
2018-01-21T04:57:38.714Z,22.50
2018-01-21T05:00:06.587Z,20.13
2018-01-21T05:02:34.571Z,21.43
2018-01-21T05:05:02.436Z,21.57
2018-01-21T05:07:30.315Z,20.13
2018-01-21T05:09:58.206Z,22.20
2018-01-21T05:12:26.060Z,20.83
2018-01-21T05:14:53.906Z,21.93
2018-01-21T05:17:21.836Z,22.77
2018-01-21T05:19:49.743Z,22.97
2018-01-21T05:22:17.607Z,21.77
2018-01-21T05:24:45.459Z,22.83
2018-01-21T05:27:13.288Z,21.47
2018-01-21T05:29:41.127Z,20.80
2018-01-21T05:32:09.034Z,20.90
2018-01-21T05:34:36.872Z,21.60
2018-01-21T05:37:04.707Z,21.00
2018-01-21T05:39:32.550Z,21.60
2018-01-21T05:42:00.379Z,21.03
2018-01-21T05:44:29.061Z,23.63
2018-01-21T05:46:56.923Z,23.00
2018-01-21T05:49:24.759Z,23.10
2018-01-21T05:51:52.606Z,22.07
2018-01-21T05:54:20.527Z,21.93
2018-01-21T05:56:48.375Z,22.63
2018-01-21T05:59:16.206Z,22.97
2018-01-21T06:01:44.102Z,21.47
2018-01-21T06:04:11.959Z,21.37
2018-01-21T06:06:39.799Z,21.73
2018-01-21T06:09:07.667Z,19.90
2018-01-21T06:11:35.504Z,19.87
2018-01-21T06:14:03.369Z,21.10
2018-01-21T06:16:31.216Z,20.43
2018-01-21T06:18:59.062Z,19.90
2018-01-21T06:21:26.934Z,19.60
2018-01-21T06:23:54.913Z,20.90
2018-01-21T06:26:22.776Z,20.73
2018-01-21T06:28:50.635Z,21.63
2018-01-21T06:31:18.553Z,20.73
2018-01-21T06:33:46.405Z,20.43
2018-01-21T06:36:14.268Z,20.10
2018-01-21T06:38:42.112Z,21.87
2018-01-21T06:41:09.988Z,21.33
2018-01-21T06:43:37.871Z,19.80
2018-01-21T06:46:05.723Z,18.83
2018-01-21T06:48:33.678Z,18.30
2018-01-21T06:51:01.562Z,20.47
2018-01-21T06:53:29.456Z,19.80
2018-01-21T06:55:57.331Z,20.33
2018-01-21T06:58:25.182Z,20.60
2018-01-21T07:00:53.221Z,20.10
2018-01-21T07:03:21.072Z,20.60
2018-01-21T07:05:48.903Z,19.40
2018-01-21T07:08:16.779Z,18.97
2018-01-21T07:10:44.618Z,20.10
2018-01-21T07:13:12.524Z,19.53
2018-01-21T07:15:40.389Z,21.40
2018-01-21T07:18:08.263Z,21.83
2018-01-21T07:20:36.130Z,21.30
2018-01-21T07:23:04.023Z,23.73
2018-01-21T07:25:31.888Z,20.60
2018-01-21T07:27:59.759Z,20.53
2018-01-21T07:30:27.632Z,20.93
2018-01-21T07:32:55.505Z,19.77
2018-01-21T07:35:23.423Z,20.07
2018-01-21T07:37:51.302Z,18.27
2018-01-21T07:40:19.155Z,18.80
2018-01-21T07:42:47.018Z,19.97
2018-01-21T07:45:14.896Z,20.13
2018-01-21T07:47:42.746Z,20.90
2018-01-21T07:50:10.610Z,19.97
2018-01-21T07:52:38.494Z,18.90
2018-01-21T07:55:06.346Z,19.40
2018-01-21T07:57:34.251Z,19.10
2018-01-21T08:00:02.100Z,19.10
2018-01-21T08:02:30.031Z,18.87
2018-01-21T08:04:57.879Z,19.07
2018-01-21T08:07:25.758Z,18.00
2018-01-21T08:09:53.621Z,17.57
2018-01-21T08:12:21.507Z,19.27
2018-01-21T08:14:49.364Z,16.60
2018-01-21T08:17:17.206Z,17.60
2018-01-21T08:19:45.083Z,19.20
2018-01-21T08:22:12.971Z,19.00
2018-01-21T08:24:40.830Z,18.90
2018-01-21T08:27:08.704Z,19.70
2018-01-21T08:29:36.602Z,19.93
2018-01-21T08:32:04.490Z,19.40
2018-01-21T08:34:38.363Z,18.33
2018-01-21T08:37:13.467Z,18.30
2018-01-21T08:39:47.503Z,18.70
2018-01-21T08:42:21.525Z,19.23
2018-01-21T08:44:49.737Z,20.20
2018-01-21T08:47:17.882Z,18.50
2018-01-21T08:49:45.755Z,17.63
2018-01-21T08:52:13.632Z,17.23
2018-01-21T08:54:41.477Z,18.87
2018-01-21T08:57:09.390Z,19.03
2018-01-21T08:59:37.791Z,19.10
2018-01-21T09:02:05.698Z,19.00
2018-01-21T09:04:33.598Z,19.40
2018-01-21T09:07:01.447Z,20.30
2018-01-21T09:09:29.320Z,19.70
2018-01-21T09:11:57.196Z,19.13
2018-01-21T09:14:32.012Z,17.90
2018-01-21T09:16:59.952Z,19.90
2018-01-21T09:19:27.826Z,20.50
2018-01-21T09:21:55.744Z,20.63
2018-01-21T09:24:23.627Z,20.80
2018-01-21T09:26:51.550Z,22.47
2018-01-21T09:29:19.487Z,19.83
2018-01-21T09:31:47.442Z,20.47
2018-01-21T09:34:15.330Z,20.80
2018-01-21T09:36:43.197Z,19.13
2018-01-21T09:39:11.049Z,20.30
2018-01-21T09:41:38.915Z,19.27
2018-01-21T09:44:07.059Z,20.40
2018-01-21T09:46:35.134Z,20.00
2018-01-21T09:49:03.063Z,18.67
2018-01-21T09:51:30.927Z,21.80
2018-01-21T09:53:58.763Z,22.90
2018-01-21T09:56:26.647Z,25.10
2018-01-21T09:58:54.523Z,20.40
2018-01-21T10:01:22.398Z,22.37
2018-01-21T10:03:50.442Z,21.40
2018-01-21T10:06:19.025Z,23.03
2018-01-21T10:08:46.942Z,21.00
2018-01-21T10:11:15.863Z,23.13
2018-01-21T10:13:43.756Z,23.33
2018-01-21T10:16:11.712Z,20.87
2018-01-21T10:18:41.558Z,30.40
2018-01-21T10:21:09.681Z,22.50
2018-01-21T10:23:37.616Z,21.50
2018-01-21T10:26:05.515Z,21.93
2018-01-21T10:28:34.163Z,22.57
2018-01-21T10:31:02.229Z,24.40
2018-01-21T10:33:30.279Z,22.93
2018-01-21T10:35:59.135Z,22.30
2018-01-21T10:38:27.011Z,22.17
2018-01-21T10:40:54.871Z,20.03
2018-01-21T10:43:23.108Z,21.70
2018-01-21T10:45:50.979Z,22.93
2018-01-21T10:48:18.812Z,20.20
2018-01-21T10:50:46.678Z,22.10
2018-01-21T10:53:15.699Z,21.37
2018-01-21T10:55:43.547Z,21.77
2018-01-21T10:58:11.522Z,22.03
2018-01-21T11:00:45.589Z,21.13
2018-01-21T11:03:13.455Z,19.90
2018-01-21T11:05:41.327Z,18.90
2018-01-21T11:08:09.199Z,22.00
2018-01-21T11:10:37.142Z,25.50
2018-01-21T11:13:05.069Z,21.90
2018-01-21T11:15:32.898Z,22.47
2018-01-21T11:18:00.877Z,22.40
2018-01-21T11:20:28.795Z,20.47
2018-01-21T11:22:56.637Z,22.23
2018-01-21T11:25:24.551Z,23.10
2018-01-21T11:27:52.611Z,23.37
2018-01-21T11:30:20.436Z,21.53
2018-01-21T11:32:48.299Z,21.50
2018-01-21T11:35:16.147Z,22.37
2018-01-21T11:37:44.371Z,22.10
2018-01-21T11:40:12.341Z,25.60
2018-01-21T11:42:40.184Z,23.10
2018-01-21T11:45:08.037Z,24.40
2018-01-21T11:47:35.899Z,24.57
2018-01-21T11:50:03.768Z,24.23
2018-01-21T11:52:31.621Z,23.57
2018-01-21T11:54:59.495Z,22.80
2018-01-21T11:57:27.371Z,23.30
2018-01-21T11:59:55.223Z,20.90
2018-01-21T12:02:23.216Z,19.80
2018-01-21T12:04:51.110Z,26.23
2018-01-21T12:07:18.966Z,26.23
2018-01-21T12:09:46.949Z,21.83
2018-01-21T12:12:14.796Z,22.30
2018-01-21T12:14:42.628Z,23.20
2018-01-21T12:17:10.492Z,23.93
2018-01-21T12:19:38.334Z,23.90
2018-01-21T12:22:06.238Z,23.33
2018-01-21T12:24:34.142Z,24.73
2018-01-21T12:27:02.019Z,24.10
2018-01-21T12:29:29.855Z,23.00
2018-01-21T12:31:57.731Z,24.80
2018-01-21T12:34:25.788Z,22.27
2018-01-21T12:36:53.683Z,23.73
2018-01-21T12:39:21.581Z,21.30
2018-01-21T12:41:49.499Z,59.40
2018-01-21T12:44:18.414Z,23.70
2018-01-21T12:46:46.285Z,24.07
2018-01-21T12:49:14.133Z,28.47
2018-01-21T12:51:42.044Z,22.93
2018-01-21T12:54:09.927Z,22.40
2018-01-21T12:56:37.840Z,22.90
2018-01-21T12:59:05.750Z,34.57
2018-01-21T13:01:33.669Z,30.70
2018-01-21T13:04:01.568Z,22.00
2018-01-21T13:06:29.403Z,22.23
2018-01-21T13:08:57.495Z,27.40
2018-01-21T13:11:25.335Z,23.30
2018-01-21T13:13:53.198Z,25.17
2018-01-21T13:16:21.133Z,25.63
2018-01-21T13:18:48.995Z,23.10
2018-01-21T13:21:16.822Z,25.47
2018-01-21T13:23:44.687Z,23.60
2018-01-21T13:26:12.592Z,24.47
2018-01-21T13:28:40.462Z,22.50
2018-01-21T13:31:08.344Z,23.07
2018-01-21T13:33:36.247Z,24.60
2018-01-21T13:36:04.123Z,25.57
2018-01-21T13:38:31.984Z,28.43
2018-01-21T13:41:00.909Z,22.50
2018-01-21T13:43:28.799Z,26.73
2018-01-21T13:45:56.723Z,23.77
2018-01-21T13:48:24.625Z,23.30
2018-01-21T13:50:52.505Z,26.50
2018-01-21T13:53:20.381Z,24.37
2018-01-21T13:55:48.221Z,25.77
2018-01-21T13:58:16.189Z,23.87
2018-01-21T14:00:44.097Z,25.13
2018-01-21T14:03:11.985Z,42.10
2018-01-21T14:05:39.860Z,24.00
2018-01-21T14:08:07.743Z,34.17
2018-01-21T14:10:35.708Z,27.30
2018-01-21T14:13:03.697Z,26.53
2018-01-21T14:15:31.563Z,33.50
2018-01-21T14:17:59.412Z,24.27
2018-01-21T14:20:27.279Z,40.00
2018-01-21T14:22:55.153Z,28.20
2018-01-21T14:25:23.020Z,27.30
2018-01-21T14:27:50.901Z,30.20
2018-01-21T14:30:18.826Z,25.10
2018-01-21T14:32:46.668Z,26.70
2018-01-21T14:35:14.622Z,27.73
2018-01-21T14:37:42.542Z,28.30
2018-01-21T14:40:10.819Z,26.70
2018-01-21T14:42:38.670Z,27.00
2018-01-21T14:45:06.561Z,26.63
2018-01-21T14:47:34.407Z,26.47
2018-01-21T14:50:02.249Z,30.13
2018-01-21T14:52:30.121Z,24.40
2018-01-21T14:54:58.011Z,29.63
2018-01-21T14:57:25.871Z,26.07
2018-01-21T14:59:53.757Z,31.40
2018-01-21T15:02:21.654Z,28.80
2018-01-21T15:04:49.495Z,22.37
2018-01-21T15:07:17.391Z,22.10
2018-01-21T15:09:45.262Z,24.57
2018-01-21T15:12:13.170Z,29.00
2018-01-21T15:14:41.059Z,23.40
2018-01-21T15:17:08.927Z,25.17
2018-01-21T15:19:36.785Z,26.73
2018-01-21T15:22:04.675Z,27.30
2018-01-21T15:24:32.506Z,27.40
2018-01-21T15:27:00.355Z,27.73
2018-01-21T15:29:28.611Z,29.33
2018-01-21T15:31:56.919Z,31.87
2018-01-21T15:34:24.807Z,32.57
2018-01-21T15:36:53.077Z,26.13
2018-01-21T15:39:20.936Z,28.30
2018-01-21T15:41:48.779Z,24.10
2018-01-21T15:44:16.692Z,25.10
2018-01-21T15:46:44.554Z,25.70
2018-01-21T15:49:12.491Z,31.10
2018-01-21T15:51:40.447Z,31.30
2018-01-21T15:54:08.346Z,31.23
2018-01-21T15:56:36.253Z,26.70
2018-01-21T15:59:04.109Z,27.23
2018-01-21T16:01:32.009Z,25.40
2018-01-21T16:03:59.851Z,24.63
2018-01-21T16:06:27.731Z,23.70
2018-01-21T16:08:55.621Z,29.53
2018-01-21T16:11:23.442Z,25.13
2018-01-21T16:13:51.340Z,25.57
2018-01-21T16:16:19.199Z,25.40
2018-01-21T16:18:47.035Z,24.53
2018-01-21T16:21:14.923Z,29.60
2018-01-21T16:23:43.004Z,25.47
2018-01-21T16:26:10.914Z,29.03
2018-01-21T16:28:38.802Z,30.10
2018-01-21T16:31:06.656Z,31.87
2018-01-21T16:33:34.636Z,31.67
2018-01-21T16:36:02.514Z,24.07
2018-01-21T16:38:36.403Z,34.10
2018-01-21T16:41:04.299Z,26.77
2018-01-21T16:43:32.174Z,27.23
2018-01-21T16:46:00.027Z,27.30
2018-01-21T16:48:27.908Z,25.07
2018-01-21T16:50:55.962Z,26.37
2018-01-21T16:53:24.316Z,27.60
2018-01-21T16:55:52.600Z,24.70
2018-01-21T16:58:20.534Z,25.43
2018-01-21T17:00:48.395Z,25.27
2018-01-21T17:03:16.327Z,25.20
2018-01-21T17:05:44.188Z,28.90
2018-01-21T17:08:12.082Z,26.87
2018-01-21T17:10:39.966Z,26.30
2018-01-21T17:13:07.860Z,25.70
2018-01-21T17:15:35.799Z,25.40
2018-01-21T17:18:03.647Z,22.87
2018-01-21T17:20:31.729Z,23.37
2018-01-21T17:22:59.575Z,23.53
2018-01-21T17:25:27.414Z,24.03
2018-01-21T17:27:55.326Z,23.00
2018-01-21T17:30:23.160Z,23.43
2018-01-21T17:32:51.021Z,25.80
2018-01-21T17:35:19.039Z,26.53
2018-01-21T17:37:46.949Z,25.60
2018-01-21T17:40:14.830Z,25.97
2018-01-21T17:42:42.682Z,25.30
2018-01-21T17:45:10.545Z,25.87
2018-01-21T17:47:38.548Z,26.10
2018-01-21T17:50:06.395Z,26.50
2018-01-21T17:52:34.275Z,24.10
2018-01-21T17:55:02.143Z,24.40
2018-01-21T17:57:30.031Z,24.77
2018-01-21T17:59:57.888Z,24.60
2018-01-21T18:02:25.799Z,24.77
2018-01-21T18:04:53.663Z,23.73
2018-01-21T18:07:21.487Z,25.70
2018-01-21T18:09:51.138Z,25.17
2018-01-21T18:12:19.009Z,26.07
2018-01-21T18:14:46.908Z,25.53
2018-01-21T18:17:14.800Z,25.43
2018-01-21T18:19:42.695Z,26.33
2018-01-21T18:22:10.578Z,26.50
2018-01-21T18:24:38.523Z,26.90
2018-01-21T18:27:06.411Z,27.10
2018-01-21T18:29:34.302Z,25.33
2018-01-21T18:32:02.220Z,26.93
2018-01-21T18:34:30.151Z,26.03
2018-01-21T18:36:58.051Z,27.17
2018-01-21T18:39:25.907Z,28.17
2018-01-21T18:41:53.781Z,23.30
2018-01-21T18:44:21.623Z,26.20
2018-01-21T18:46:50.451Z,26.60
2018-01-21T18:49:18.280Z,25.83
2018-01-21T18:51:46.254Z,25.63
2018-01-21T18:54:14.261Z,24.90
2018-01-21T18:56:42.203Z,24.77
2018-01-21T18:59:10.213Z,26.80
2018-01-21T19:01:38.169Z,25.27
2018-01-21T19:04:06.044Z,26.43
2018-01-21T19:06:33.967Z,25.33
2018-01-21T19:09:02.465Z,27.30
2018-01-21T19:11:33.065Z,27.70
2018-01-21T19:14:01.144Z,27.83
2018-01-21T19:16:29.222Z,25.63
2018-01-21T19:18:57.134Z,26.77
2018-01-21T19:21:26.003Z,24.17
2018-01-21T19:23:53.917Z,24.90
2018-01-21T19:26:21.765Z,26.30
2018-01-21T19:28:49.611Z,33.10
2018-01-21T19:31:18.383Z,26.00
2018-01-21T19:33:49.946Z,27.53
2018-01-21T19:36:17.936Z,24.53
2018-01-21T19:38:49.066Z,24.90
2018-01-21T19:41:34.414Z,31.20
2018-01-21T19:44:06.168Z,20.00
2018-01-21T19:46:34.181Z,24.10
2018-01-21T19:49:02.392Z,24.07
2018-01-21T19:51:30.312Z,24.03
2018-01-21T19:53:58.519Z,28.23
2018-01-21T19:56:26.368Z,21.67
2018-01-21T19:58:54.383Z,19.93
2018-01-21T20:01:22.320Z,21.27
2018-01-21T20:03:50.271Z,22.77
2018-01-21T20:06:21.595Z,23.53
2018-01-21T20:08:49.468Z,22.13
2018-01-21T20:11:17.569Z,21.90
2018-01-21T20:13:45.514Z,32.80
2018-01-21T20:16:13.431Z,20.20
2018-01-21T20:18:41.313Z,21.03
2018-01-21T20:21:09.222Z,20.30
2018-01-21T20:23:37.347Z,22.67
2018-01-21T20:26:05.884Z,22.40
2018-01-21T20:28:33.765Z,23.10
2018-01-21T20:31:01.744Z,24.87
2018-01-21T20:33:30.969Z,18.70
2018-01-21T20:35:58.871Z,21.87
2018-01-21T20:38:26.762Z,26.80
2018-01-21T20:40:55.627Z,20.30
2018-01-21T20:43:23.696Z,21.50
2018-01-21T20:45:51.656Z,19.87
2018-01-21T20:48:19.636Z,19.23
2018-01-21T20:50:47.582Z,26.40
2018-01-21T20:53:21.479Z,17.63
2018-01-21T20:55:49.404Z,17.97
2018-01-21T20:58:17.253Z,19.50
2018-01-21T21:00:45.370Z,19.27
2018-01-21T21:03:13.484Z,23.20
2018-01-21T21:05:41.418Z,16.97
2018-01-21T21:08:09.334Z,20.03
2018-01-21T21:10:37.212Z,21.10
2018-01-21T21:13:05.086Z,19.20
2018-01-21T21:15:33.020Z,17.27
2018-01-21T21:18:01.638Z,21.60
2018-01-21T21:20:29.547Z,22.27
2018-01-21T21:22:58.082Z,21.87
2018-01-21T21:25:26.545Z,21.53
2018-01-21T21:27:54.465Z,18.90
2018-01-21T21:30:22.405Z,17.33
2018-01-21T21:32:50.292Z,19.33
2018-01-21T21:35:18.177Z,19.57
2018-01-21T21:37:46.091Z,17.80
2018-01-21T21:40:13.955Z,18.40
2018-01-21T21:42:41.963Z,17.87
2018-01-21T21:45:10.004Z,19.30
2018-01-21T21:47:37.871Z,19.60
2018-01-21T21:50:05.753Z,19.67
2018-01-21T21:52:33.642Z,16.70
2018-01-21T21:55:01.538Z,18.40
2018-01-21T21:57:29.411Z,16.83
2018-01-21T21:59:57.307Z,17.93
2018-01-21T22:02:25.145Z,20.90
2018-01-21T22:04:52.979Z,19.80
2018-01-21T22:07:20.867Z,19.30
2018-01-21T22:09:48.730Z,17.07
2018-01-21T22:12:16.703Z,19.10
2018-01-21T22:14:44.874Z,22.40
2018-01-21T22:17:12.748Z,30.50
2018-01-21T22:19:40.739Z,22.50
2018-01-21T22:22:08.625Z,19.70
2018-01-21T22:24:36.498Z,21.17
2018-01-21T22:27:05.369Z,21.87
2018-01-21T22:29:33.275Z,21.40
2018-01-21T22:32:01.159Z,19.17
2018-01-21T22:34:29.153Z,20.57
2018-01-21T22:36:57.027Z,19.17
2018-01-21T22:39:24.866Z,17.23
2018-01-21T22:41:52.753Z,19.77
2018-01-21T22:44:20.655Z,18.00
2018-01-21T22:46:48.490Z,17.43
2018-01-21T22:49:16.351Z,17.80
2018-01-21T22:51:44.291Z,18.03
2018-01-21T22:54:12.239Z,15.90
2018-01-21T22:56:40.136Z,17.00
2018-01-21T22:59:08.019Z,16.53
2018-01-21T23:01:35.871Z,18.00
2018-01-21T23:04:03.775Z,15.77
2018-01-21T23:06:31.643Z,18.00
2018-01-21T23:08:59.492Z,17.33
2018-01-21T23:11:27.392Z,16.20
2018-01-21T23:13:55.397Z,16.50
2018-01-21T23:16:23.266Z,14.63
2018-01-21T23:18:51.166Z,16.80
2018-01-21T23:21:19.068Z,19.03
2018-01-21T23:23:46.939Z,17.77
2018-01-21T23:26:14.795Z,17.37
2018-01-21T23:28:42.682Z,17.33
2018-01-21T23:31:10.552Z,18.80
2018-01-21T23:33:39.182Z,20.50
2018-01-21T23:36:07.060Z,19.57
2018-01-21T23:38:34.892Z,20.87
2018-01-21T23:41:02.775Z,19.37
2018-01-21T23:43:30.666Z,17.67
2018-01-21T23:45:58.574Z,18.40
2018-01-21T23:48:26.440Z,19.27
2018-01-21T23:50:54.370Z,20.77
2018-01-21T23:53:22.235Z,19.23
2018-01-21T23:55:50.963Z,18.77
2018-01-21T23:58:18.906Z,19.33
